Time;durP1;ratioP1;P1;durP2;ratioP2;P2;SDS_P1;SDS_P2;PMS_P1;PMS_P2;Temp;Humidity;BMP_temperature;BMP_pressure;BME280_temperature;BME280_humidity;BME280_pressure;Samples;Min_cycle;Max_cycle;Signal;HPM_P1;HPM_P2
2021/05/30 00:00:33;;;;;;;3.77;2.87;;;;;;;10.09;72.88;101128.92;1618759;84;25678;-74
2021/05/30 00:03:01;;;;;;;3.87;2.45;;;;;;;10.04;73.24;101125.94;1685685;84;25845;-74
2021/05/30 00:05:29;;;;;;;2.92;2.33;;;;;;;10.00;73.32;101134.48;1665854;84;25913;-74
2021/05/30 00:07:57;;;;;;;6.83;3.40;;;;;;;9.99;73.41;101131.45;1646143;84;25852;-73
2021/05/30 00:10:26;;;;;;;4.47;3.12;;;;;;;9.94;73.41;101121.25;1644260;83;27996;-74
2021/05/30 00:12:53;;;;;;;8.75;3.35;;;;;;;9.92;73.64;101128.63;1694121;84;25691;-73
2021/05/30 00:15:20;;;;;;;3.15;2.50;;;;;;;9.91;73.71;101127.45;1696953;84;25654;-74
2021/05/30 00:17:47;;;;;;;3.25;2.65;;;;;;;9.90;73.69;101135.17;1657171;84;25889;-74
2021/05/30 00:20:14;;;;;;;7.25;3.15;;;;;;;9.86;73.73;101135.14;1623586;84;25854;-74
2021/05/30 00:22:41;;;;;;;6.25;3.12;;;;;;;9.84;73.87;101137.16;1688963;84;28065;-74
2021/05/30 00:25:10;;;;;;;4.65;3.10;;;;;;;9.76;74.14;101136.68;1691752;84;26389;-74
2021/05/30 00:27:38;;;;;;;3.95;2.92;;;;;;;9.70;74.33;101136.52;1659420;84;25771;-73
2021/05/30 00:30:06;;;;;;;4.00;3.35;;;;;;;9.69;74.45;101135.67;1623394;84;26176;-74
2021/05/30 00:32:33;;;;;;;5.97;3.37;;;;;;;9.66;74.56;101139.20;1648658;84;26551;-74
2021/05/30 00:35:01;;;;;;;4.75;3.37;;;;;;;9.62;74.59;101134.69;1689443;84;27403;-74
2021/05/30 00:37:28;;;;;;;7.20;4.10;;;;;;;9.60;74.73;101136.67;1639910;84;25727;-74
2021/05/30 00:39:55;;;;;;;5.53;3.75;;;;;;;9.59;75.02;101134.17;1622850;84;25647;-74
2021/05/30 00:42:22;;;;;;;6.10;3.75;;;;;;;9.57;74.82;101138.85;1691045;84;26774;-74
2021/05/30 00:44:49;;;;;;;8.75;4.30;;;;;;;9.58;75.47;101137.86;1687354;84;25694;-74
2021/05/30 00:47:16;;;;;;;6.35;3.90;;;;;;;9.54;75.10;101125.30;1646735;84;27368;-73
2021/05/30 00:49:43;;;;;;;7.03;4.12;;;;;;;9.55;75.15;101131.01;1657800;82;25661;-74
2021/05/30 00:52:10;;;;;;;7.08;3.33;;;;;;;9.56;75.16;101129.98;1684276;84;25306;-74
2021/05/30 00:54:38;;;;;;;6.28;3.72;;;;;;;9.57;75.13;101130.33;1724485;82;26277;-74
2021/05/30 00:57:10;;;;;;;4.03;3.62;;;;;;;9.56;75.33;101134.52;1624113;84;26458;-73
2021/05/30 00:59:41;;;;;;;9.38;3.17;;;;;;;9.55;75.18;101132.84;1642045;83;27290;-74
2021/05/30 01:02:08;;;;;;;3.75;3.05;;;;;;;9.53;75.22;101133.02;1709650;83;25754;-73
2021/05/30 01:04:35;;;;;;;2.85;2.58;;;;;;;9.54;75.16;101136.00;1708134;82;25736;-74
2021/05/30 01:07:03;;;;;;;5.75;3.37;;;;;;;9.55;75.32;101135.51;1653346;84;25751;-74
2021/05/30 01:09:32;;;;;;;7.28;2.80;;;;;;;9.53;75.29;101135.69;1667201;83;25867;-74
2021/05/30 01:11:59;;;;;;;3.65;2.98;;;;;;;9.52;75.26;101134.49;1681593;84;28140;-74
2021/05/30 01:14:26;;;;;;;3.33;2.90;;;;;;;9.52;75.28;101139.84;1686365;84;25730;-74
2021/05/30 01:16:54;;;;;;;5.35;3.27;;;;;;;9.50;75.21;101138.69;1683757;82;25887;-74
2021/05/30 01:19:24;;;;;;;5.58;3.00;;;;;;;9.48;75.25;101135.34;1667848;83;26363;-74
2021/05/30 01:21:51;;;;;;;5.40;2.58;;;;;;;9.45;75.34;101134.84;1690840;84;25765;-73
2021/05/30 01:24:18;;;;;;;4.78;2.77;;;;;;;9.43;75.53;101138.19;1661705;84;27515;-74
2021/05/30 01:26:46;;;;;;;4.67;2.67;;;;;;;9.41;75.63;101134.33;1648322;84;25685;-74
2021/05/30 01:29:13;;;;;;;3.95;2.98;;;;;;;9.38;75.71;101134.67;1671423;84;25730;-74
2021/05/30 01:31:40;;;;;;;6.05;2.75;;;;;;;9.36;75.71;101138.51;1686050;82;26915;-74
2021/05/30 01:34:08;;;;;;;4.20;2.95;;;;;;;9.37;75.87;101138.86;1667989;84;25309;-74
2021/05/30 01:36:35;;;;;;;3.58;2.67;;;;;;;9.34;75.92;101129.33;1721983;82;28050;-73
2021/05/30 01:39:02;;;;;;;4.20;2.37;;;;;;;9.36;75.95;101138.51;1705616;82;25762;-74
2021/05/30 01:41:29;;;;;;;5.90;3.00;;;;;;;9.37;75.97;101138.86;1667943;82;25774;-74
2021/05/30 01:43:56;;;;;;;4.60;2.80;;;;;;;9.38;76.04;101149.37;1695561;82;25794;-74
2021/05/30 01:46:23;;;;;;;3.17;2.42;;;;;;;9.37;76.02;101139.67;1711283;83;25777;-74
2021/05/30 01:48:51;;;;;;;3.08;2.40;;;;;;;9.36;76.15;101135.84;1686253;83;26775;-74
2021/05/30 01:51:18;;;;;;;4.17;2.02;;;;;;;9.36;76.11;101136.68;1684337;83;25734;-74
2021/05/30 01:53:53;;;;;;;3.00;2.35;;;;;;;9.38;76.17;101133.83;1725708;81;25734;-74
2021/05/30 01:59:04;;;;;;;5.12;2.25;;;;;;;9.40;76.14;101135.34;1689995;83;25657;-74
2021/05/30 02:01:33;;;;;;;3.62;2.33;;;;;;;9.42;76.05;101141.85;1682456;83;27567;-74
2021/05/30 02:04:03;;;;;;;3.08;2.08;;;;;;;9.42;76.08;101140.02;1654252;83;25731;-74
2021/05/30 02:06:32;;;;;;;2.77;2.30;;;;;;;9.44;76.18;101142.52;1665022;83;25766;-74
2021/05/30 02:08:59;;;;;;;4.45;2.22;;;;;;;9.43;76.31;101143.54;1710904;83;25885;-74
2021/05/30 02:11:27;;;;;;;3.02;2.67;;;;;;;9.44;76.30;101143.36;1653111;83;26414;-74
2021/05/30 02:14:00;;;;;;;2.52;2.17;;;;;;;9.45;76.18;101144.20;1676476;83;28042;-73
2021/05/30 02:16:30;;;;;;;2.40;2.08;;;;;;;9.47;76.23;101147.55;1714059;82;26392;-73
2021/05/30 02:18:58;;;;;;;2.27;2.08;;;;;;;9.49;76.10;101138.86;1727020;82;26170;-73
2021/05/30 02:21:26;;;;;;;4.28;2.50;;;;;;;9.53;76.19;101141.53;1658773;82;26045;-74
2021/05/30 02:23:53;;;;;;;2.70;2.30;;;;;;;9.55;75.97;101143.53;1681295;82;25656;-73
2021/05/30 02:26:20;;;;;;;4.80;2.37;;;;;;;9.58;76.20;101145.89;1711982;82;27390;-74
2021/05/30 02:28:47;;;;;;;3.35;2.75;;;;;;;9.60;76.06;101142.55;1712477;82;26373;-74
2021/05/30 02:31:14;;;;;;;2.62;2.33;;;;;;;9.61;76.05;101142.37;1663820;83;26082;-74
2021/05/30 02:33:41;;;;;;;3.83;2.22;;;;;;;9.62;76.01;101141.38;1659003;82;25840;-74
2021/05/30 02:36:08;;;;;;;3.00;2.37;;;;;;;9.61;76.23;101141.52;1714816;82;25684;-74
2021/05/30 02:38:35;;;;;;;2.77;2.00;;;;;;;9.61;76.22;101146.88;1723530;82;28004;-74
2021/05/30 02:41:02;;;;;;;3.27;2.70;;;;;;;9.61;76.24;101145.53;1654694;82;25853;-74
2021/05/30 02:43:29;;;;;;;3.30;3.00;;;;;;;9.62;76.23;101148.06;1674416;82;25748;-74
2021/05/30 02:45:57;;;;;;;3.08;2.77;;;;;;;9.62;76.33;101150.73;1729602;82;25739;-73
2021/05/30 02:48:24;;;;;;;2.98;2.50;;;;;;;9.63;76.52;101147.05;1671178;84;25845;-73
2021/05/30 02:51:00;;;;;;;3.10;2.42;;;;;;;9.64;76.47;101150.56;1650017;84;28680;-73
2021/05/30 02:53:29;;;;;;;4.05;2.27;;;;;;;9.64;76.38;101152.74;1628058;84;26469;-74
2021/05/30 02:55:58;;;;;;;4.87;2.62;;;;;;;9.64;76.40;101150.56;1690875;84;25780;-74
2021/05/30 02:58:26;;;;;;;3.85;3.15;;;;;;;9.64;76.60;101152.74;1721671;82;25774;-73
2021/05/30 03:00:54;;;;;;;3.45;2.45;;;;;;;9.64;76.53;101154.08;1658058;83;25762;-74
2021/05/30 03:03:21;;;;;;;3.58;2.10;;;;;;;9.66;76.51;101160.59;1635741;84;28136;-74
2021/05/30 03:05:48;;;;;;;5.20;2.45;;;;;;;9.67;77.10;101159.57;1648292;84;25696;-74
2021/05/30 03:08:16;;;;;;;5.22;2.60;;;;;;;9.66;76.93;101160.09;1684632;84;25674;-74
2021/05/30 03:10:43;;;;;;;5.72;2.65;;;;;;;9.67;76.71;101160.91;1675892;84;26463;-73
2021/05/30 03:13:10;;;;;;;4.85;2.80;;;;;;;9.68;76.64;101162.59;1639891;82;25840;-73
2021/05/30 03:15:38;;;;;;;3.83;2.52;;;;;;;9.69;76.68;101161.08;1650345;84;28040;-74
2021/05/30 03:18:07;;;;;;;3.08;2.37;;;;;;;9.70;76.89;101167.27;1681579;84;25696;-73
2021/05/30 03:20:34;;;;;;;4.90;2.60;;;;;;;9.69;76.82;101161.58;1656865;84;26386;-74
2021/05/30 03:23:01;;;;;;;2.80;2.27;;;;;;;9.71;76.80;101164.42;1625539;85;25891;-74
2021/05/30 03:25:29;;;;;;;3.58;2.42;;;;;;;9.73;77.12;101170.97;1661259;84;26535;-74
2021/05/30 03:27:56;;;;;;;3.33;2.40;;;;;;;9.72;76.95;101167.45;1683049;84;27413;-74
2021/05/30 03:30:23;;;;;;;2.27;2.08;;;;;;;9.73;77.00;101162.94;1679900;84;25726;-73
2021/05/30 03:32:50;;;;;;;3.47;3.05;;;;;;;9.76;77.06;101165.27;1642057;84;25854;-74
2021/05/30 03:35:17;;;;;;;2.65;2.20;;;;;;;9.78;77.03;101168.61;1675783;84;25912;-73
2021/05/30 03:37:44;;;;;;;3.72;2.87;;;;;;;9.81;77.20;101170.46;1689015;84;25422;-73
2021/05/30 03:40:29;;;;;;;4.62;2.80;;;;;;;9.84;77.15;101176.80;1715485;82;27357;-73
2021/05/30 03:42:54;;;;;;;2.70;2.40;;;;;;;9.87;77.14;101172.46;1634450;84;25746;-73
2021/05/30 03:45:23;;;;;;;3.33;2.37;;;;;;;9.90;77.19;101165.94;1686179;82;25716;-74
2021/05/30 03:47:50;;;;;;;3.67;2.60;;;;;;;9.95;77.06;101174.28;1709359;82;26441;-74
2021/05/30 03:50:18;;;;;;;5.60;2.05;;;;;;;10.02;76.95;101168.59;1679641;83;26438;-74
2021/05/30 03:52:46;;;;;;;2.67;2.45;;;;;;;10.07;77.16;101163.58;1676429;83;27523;-73
2021/05/30 03:55:14;;;;;;;2.25;2.05;;;;;;;10.08;76.99;101167.42;1681796;83;25834;-74
2021/05/30 03:57:41;;;;;;;4.50;2.42;;;;;;;10.11;77.11;101166.78;1678577;84;25749;-74
2021/05/30 04:00:13;;;;;;;4.62;2.22;;;;;;;10.13;77.11;101174.13;1665139;84;25773;-74
2021/05/30 04:02:41;;;;;;;3.85;2.70;;;;;;;10.16;76.89;101167.11;1666345;84;25928;-74
2021/05/30 04:05:10;;;;;;;2.95;2.30;;;;;;;10.18;76.95;101163.23;1646157;85;27537;-74
2021/05/30 04:07:37;;;;;;;4.17;2.65;;;;;;;10.18;76.75;101168.59;1666707;85;25910;-73
2021/05/30 04:10:09;;;;;;;4.95;2.37;;;;;;;10.18;76.87;101170.45;1645768;85;26458;-74
2021/05/30 04:12:39;;;;;;;4.00;1.95;;;;;;;10.18;76.80;101169.92;1638263;85;25867;-74
2021/05/30 04:15:09;;;;;;;3.00;2.70;;;;;;;10.18;76.77;101161.89;1628793;85;25864;-74
2021/05/30 04:17:41;;;;;;;2.30;2.08;;;;;;;10.17;76.92;101169.61;1665964;85;28269;-73
2021/05/30 04:20:12;;;;;;;5.03;2.37;;;;;;;10.18;76.73;101165.91;1665365;85;26058;-73
2021/05/30 04:22:40;;;;;;;2.80;2.10;;;;;;;10.23;76.87;101172.09;1629763;85;26005;-74
2021/05/30 04:25:10;;;;;;;2.40;2.12;;;;;;;10.24;76.85;101167.09;1652139;85;25888;-74
2021/05/30 04:27:37;;;;;;;4.45;2.75;;;;;;;10.24;76.79;101165.75;1667834;85;25807;-74
2021/05/30 04:30:06;;;;;;;2.75;2.37;;;;;;;10.26;76.85;101171.77;1643929;85;27478;-74
2021/05/30 04:32:34;;;;;;;4.92;2.67;;;;;;;10.29;77.01;101168.73;1644439;85;25680;-74
2021/05/30 04:35:01;;;;;;;4.47;2.12;;;;;;;10.32;76.95;101172.42;1627410;85;25306;-74
2021/05/30 04:37:28;;;;;;;7.20;2.35;;;;;;;10.36;77.09;101176.42;1668117;85;25953;-74
2021/05/30 04:39:56;;;;;;;3.00;2.42;;;;;;;10.40;77.06;101181.77;1640727;85;25964;-73
2021/05/30 04:42:23;;;;;;;3.45;2.02;;;;;;;10.41;77.19;101177.59;1631308;85;28182;-74
2021/05/30 04:44:50;;;;;;;5.22;2.20;;;;;;;10.43;77.29;101172.91;1625979;85;25709;-74
2021/05/30 04:47:18;;;;;;;2.37;1.85;;;;;;;10.45;77.24;101177.58;1670615;85;26002;-74
2021/05/30 04:49:45;;;;;;;2.10;1.77;;;;;;;10.46;77.23;101179.73;1614967;87;25784;-74
2021/05/30 04:52:12;;;;;;;2.55;1.87;;;;;;;10.48;77.42;101181.23;1620209;85;26129;-74
2021/05/30 04:54:40;;;;;;;3.67;2.55;;;;;;;10.49;77.34;101179.41;1627222;85;27987;-74
2021/05/30 04:57:07;;;;;;;3.60;2.30;;;;;;;10.53;77.21;101182.06;1667091;85;26361;-74
2021/05/30 04:59:34;;;;;;;2.72;2.50;;;;;;;10.57;77.23;101186.06;1642320;85;25759;-73
2021/05/30 05:02:01;;;;;;;3.02;2.30;;;;;;;10.62;77.24;101190.41;1621666;84;26405;-74
2021/05/30 05:04:28;;;;;;;3.02;2.55;;;;;;;10.67;77.39;101181.37;1683408;84;25773;-74
2021/05/30 05:06:55;;;;;;;4.80;1.92;;;;;;;10.74;77.34;101186.34;1681362;84;27135;-74
2021/05/30 05:09:22;;;;;;;2.58;2.20;;;;;;;10.77;77.33;101186.01;1651162;84;25725;-74
2021/05/30 05:11:49;;;;;;;6.40;2.40;;;;;;;10.81;77.29;101186.83;1624936;84;25341;-74
2021/05/30 05:14:16;;;;;;;4.50;2.40;;;;;;;10.80;77.09;101189.16;1681131;84;25700;-74
2021/05/30 05:16:43;;;;;;;4.67;2.40;;;;;;;10.82;77.29;101188.98;1682782;84;25644;-74
2021/05/30 05:19:11;;;;;;;2.22;1.77;;;;;;;10.84;77.22;101191.02;1679498;84;27612;-74
2021/05/30 05:21:38;;;;;;;4.72;2.87;;;;;;;10.86;77.23;101202.39;1644189;84;25953;-74
2021/05/30 05:24:06;;;;;;;2.83;2.40;;;;;;;10.90;77.32;101196.17;1632503;85;25688;-74
2021/05/30 05:26:34;;;;;;;3.05;2.42;;;;;;;10.92;77.43;101197.67;1686239;84;26610;-74
2021/05/30 05:29:01;;;;;;;3.72;2.67;;;;;;;10.96;77.32;101200.33;1640663;84;25645;-74
2021/05/30 05:31:28;;;;;;;4.17;2.52;;;;;;;11.01;77.52;101205.17;1656972;83;27462;-74
2021/05/30 05:33:55;;;;;;;5.00;3.15;;;;;;;11.02;77.38;101190.24;1627323;86;26397;-74
2021/05/30 05:36:22;;;;;;;3.87;2.72;;;;;;;11.04;77.10;101204.80;1678001;83;25786;-74
2021/05/30 05:38:50;;;;;;;9.88;4.20;;;;;;;11.04;77.30;101206.98;1706660;82;25667;-74
2021/05/30 05:41:17;;;;;;;3.40;3.10;;;;;;;11.06;77.16;101209.48;1705814;82;25832;-74
2021/05/30 05:43:44;;;;;;;3.60;2.45;;;;;;;11.08;77.60;101200.75;1654321;82;27596;-74
2021/05/30 05:46:11;;;;;;;5.28;2.60;;;;;;;11.12;77.31;101208.28;1689664;83;26376;-74
2021/05/30 05:48:38;;;;;;;4.17;2.70;;;;;;;11.12;77.19;101203.45;1680719;83;25684;-74
2021/05/30 05:51:05;;;;;;;5.45;2.85;;;;;;;11.14;77.44;101204.91;1637193;84;26337;-74
2021/05/30 05:53:32;;;;;;;3.98;2.50;;;;;;;11.20;77.49;101210.94;1640744;84;26085;-73
2021/05/30 05:55:59;;;;;;;2.70;2.50;;;;;;;11.23;77.33;101210.56;1713222;82;27521;-74
2021/05/30 05:58:27;;;;;;;5.10;2.80;;;;;;;11.27;77.44;101211.07;1707052;82;26466;-74
2021/05/30 06:00:54;;;;;;;5.72;3.10;;;;;;;11.31;77.47;101207.84;1661352;83;25695;-74
2021/05/30 06:03:21;;;;;;;4.00;2.47;;;;;;;11.36;77.23;101214.02;1697174;82;25883;-74
2021/05/30 06:05:48;;;;;;;3.85;2.87;;;;;;;11.36;77.25;101212.17;1695018;84;25785;-74
2021/05/30 06:08:15;;;;;;;5.03;2.92;;;;;;;11.38;77.34;101219.53;1677165;82;27243;-74
2021/05/30 06:10:43;;;;;;;4.55;2.70;;;;;;;11.43;77.19;101221.19;1652127;84;26466;-74
2021/05/30 06:13:10;;;;;;;3.17;2.60;;;;;;;11.44;77.03;101218.82;1654547;84;26539;-74
2021/05/30 06:15:39;;;;;;;7.00;2.75;;;;;;;11.48;77.24;101220.66;1690279;84;25765;-73
2021/05/30 06:18:14;;;;;;;5.22;3.60;;;;;;;11.51;76.90;101216.27;1665765;84;25657;-74
2021/05/30 06:20:45;;;;;;;4.05;3.10;;;;;;;11.54;77.03;101222.63;1673234;84;27416;-73
2021/05/30 06:23:13;;;;;;;;;;;;;;;11.57;77.04;101223.59;1668127;84;26058;-74
2021/05/30 06:25:45;;;;;;;6.47;3.45;;;;;;;11.58;76.83;101238.70;1694448;84;26133;-75
2021/05/30 06:28:13;;;;;;;3.40;3.05;;;;;;;11.56;77.12;101238.05;1629289;83;26019;-74
2021/05/30 06:30:41;;;;;;;4.75;3.12;;;;;;;11.58;77.05;101237.36;1693472;82;26449;-74
2021/05/30 06:33:10;;;;;;;4.30;2.80;;;;;;;11.61;77.01;101239.70;1694496;83;27478;-74
2021/05/30 06:35:40;;;;;;;4.50;3.25;;;;;;;11.65;77.02;101237.80;1646631;84;25992;-73
2021/05/30 06:38:11;;;;;;;4.97;3.35;;;;;;;11.69;76.61;101234.80;1693541;83;26414;-74
2021/05/30 06:40:39;;;;;;;7.40;3.27;;;;;;;11.68;76.58;101234.45;1704424;83;26457;-74
2021/05/30 06:43:09;;;;;;;4.62;2.98;;;;;;;11.70;77.15;101237.30;1645559;84;25632;-73
2021/05/30 06:45:35;;;;;;;3.58;2.90;;;;;;;11.77;76.80;101241.45;1668499;84;27421;-74
2021/05/30 06:48:02;;;;;;;3.00;2.40;;;;;;;11.82;76.90;101243.94;1696127;83;25754;-74
2021/05/30 06:50:31;;;;;;;3.83;3.27;;;;;;;11.87;76.50;101246.91;1647732;84;25831;-74
2021/05/30 06:52:58;;;;;;;4.00;3.10;;;;;;;11.86;76.41;101245.25;1708413;81;26354;-75
2021/05/30 06:55:25;;;;;;;5.92;3.50;;;;;;;11.90;76.50;101243.87;1700449;81;26125;-74
2021/05/30 06:57:52;;;;;;;5.37;3.33;;;;;;;11.93;76.46;101238.66;1729109;81;27511;-74
2021/05/30 07:00:20;;;;;;;4.55;3.00;;;;;;;11.99;76.42;101240.11;1692772;82;26488;-74
2021/05/30 07:02:49;;;;;;;4.08;3.67;;;;;;;12.07;76.81;101244.57;1683741;82;25846;-73
2021/05/30 07:05:18;;;;;;;5.30;2.90;;;;;;;12.12;76.32;101233.63;1630803;84;25714;-74
2021/05/30 07:10:19;;;;;;;5.60;3.80;;;;;;;12.26;76.23;101225.26;1787038;79;25561;-74
2021/05/30 07:12:46;;;;;;;3.47;3.08;;;;;;;12.28;75.99;101236.16;1711622;80;25745;-74
2021/05/30 07:15:14;;;;;;;6.22;3.85;;;;;;;12.34;75.98;101239.45;1708521;81;27402;-74
2021/05/30 07:17:43;;;;;;;4.80;3.50;;;;;;;12.42;75.93;101236.37;1722709;81;26076;-74
2021/05/30 07:20:10;;;;;;;3.87;3.40;;;;;;;12.47;75.37;101233.44;1702443;81;25716;-75
2021/05/30 07:22:37;;;;;;;4.90;3.70;;;;;;;12.52;75.58;101243.64;1688057;81;26521;-74
2021/05/30 07:25:05;;;;;;;4.03;2.98;;;;;;;12.58;75.46;101246.44;1658319;82;26454;-73
2021/05/30 07:27:33;;;;;;;4.28;3.80;;;;;;;12.67;75.26;101245.34;1709263;83;28031;-74
2021/05/30 07:30:00;;;;;;;6.08;3.90;;;;;;;12.70;74.37;101240.11;1701895;83;25622;-74
2021/05/30 07:32:27;;;;;;;5.83;3.62;;;;;;;12.72;74.41;101244.79;1695854;81;25865;-74
2021/05/30 07:34:54;;;;;;;3.92;3.35;;;;;;;12.77;74.37;101247.23;1658414;84;25771;-74
2021/05/30 07:37:21;;;;;;;5.12;3.77;;;;;;;12.84;74.50;101247.33;1714305;82;25886;-74
2021/05/30 07:39:48;;;;;;;5.80;3.92;;;;;;;12.92;74.44;101241.34;1689296;82;27503;-75
2021/05/30 07:42:15;;;;;;;3.83;3.27;;;;;;;13.01;73.79;101241.58;1667958;82;25743;-73
2021/05/30 07:44:42;;;;;;;5.72;3.87;;;;;;;13.06;74.36;101239.20;1653343;83;25722;-75
2021/05/30 07:47:09;;;;;;;4.50;3.60;;;;;;;13.21;74.20;101245.06;1726008;81;25846;-74
2021/05/30 07:49:36;;;;;;;4.78;3.30;;;;;;;13.28;73.47;101245.45;1719905;82;25688;-75
2021/05/30 07:52:04;;;;;;;4.67;3.30;;;;;;;13.35;74.08;101246.38;1665606;83;27547;-74
2021/05/30 07:54:32;;;;;;;4.28;3.30;;;;;;;13.48;73.59;101243.84;1669464;81;25872;-74
2021/05/30 07:56:59;;;;;;;6.90;3.65;;;;;;;13.56;73.23;101249.09;1665280;83;25732;-75
2021/05/30 07:59:26;;;;;;;4.03;3.47;;;;;;;13.66;73.48;101244.77;1724373;81;25750;-74
2021/05/30 08:01:53;;;;;;;6.58;3.25;;;;;;;13.74;72.12;101237.41;1655903;83;25787;-74
2021/05/30 08:04:20;;;;;;;5.75;3.50;;;;;;;13.80;71.97;101239.83;1640482;84;28087;-75
2021/05/30 08:06:47;;;;;;;4.65;3.27;;;;;;;13.87;71.35;101230.80;1673834;83;25884;-75
2021/05/30 08:09:14;;;;;;;4.42;3.17;;;;;;;13.97;71.37;101234.50;1702609;83;25688;-74
2021/05/30 08:11:41;;;;;;;4.33;3.42;;;;;;;14.07;71.20;101240.92;1692539;81;26288;-75
2021/05/30 08:14:11;;;;;;;7.67;3.42;;;;;;;14.17;71.35;101226.09;1696223;81;25858;-75
2021/05/30 08:16:43;;;;;;;4.95;3.83;;;;;;;14.30;70.18;101227.58;1727865;81;27398;-74
2021/05/30 08:19:11;;;;;;;4.83;2.87;;;;;;;14.42;70.71;101225.16;1701469;83;26312;-75
2021/05/30 08:21:38;;;;;;;4.83;3.37;;;;;;;14.55;69.49;101226.09;1653924;83;25708;-75
2021/05/30 08:24:06;;;;;;;4.95;2.92;;;;;;;14.55;69.65;101224.75;1667131;81;26391;-74
2021/05/30 08:26:33;;;;;;;3.33;2.60;;;;;;;14.65;68.80;101225.73;1701342;83;25259;-75
2021/05/30 08:29:00;;;;;;;3.20;2.90;;;;;;;14.71;69.76;101228.16;1707330;83;27531;-75
2021/05/30 08:31:27;;;;;;;3.58;2.98;;;;;;;14.79;68.88;101227.49;1643160;83;25768;-74
2021/05/30 08:33:54;;;;;;;4.97;2.60;;;;;;;14.85;67.94;101228.55;1668900;83;26338;-74
2021/05/30 08:36:21;;;;;;;4.53;2.77;;;;;;;14.82;68.11;101229.77;1729966;81;25676;-74
2021/05/30 08:38:48;;;;;;;4.90;2.67;;;;;;;14.85;67.89;101224.50;1680489;81;25807;-75
2021/05/30 08:41:19;;;;;;;3.62;3.00;;;;;;;14.93;68.50;101227.87;1641335;84;27533;-74
2021/05/30 08:43:46;;;;;;;2.35;2.15;;;;;;;15.07;68.87;101228.27;1662707;83;25801;-74
2021/05/30 08:46:14;;;;;;;2.72;2.52;;;;;;;15.26;67.76;101229.38;1718713;82;25664;-74
2021/05/30 08:48:41;;;;;;;3.75;2.50;;;;;;;15.34;66.28;101219.23;1715630;81;25840;-75
2021/05/30 08:51:12;;;;;;;4.47;2.55;;;;;;;15.51;67.06;101231.03;1684489;82;26283;-75
2021/05/30 08:53:42;;;;;;;4.70;2.40;;;;;;;15.67;67.14;101224.77;1675502;83;28070;-75
2021/05/30 08:56:12;;;;;;;3.37;2.35;;;;;;;15.90;66.48;101226.56;1729459;81;25747;-74
2021/05/30 08:58:42;;;;;;;4.25;2.25;;;;;;;16.02;65.98;101226.77;1699079;83;25581;-75
2021/05/30 09:01:18;;;;;;;2.87;2.40;;;;;;;15.97;64.41;101226.03;1681228;83;26395;-75
2021/05/30 09:04:05;;;;;;;3.95;2.47;;;;;;;15.90;63.09;101229.27;1709787;81;25740;-75
2021/05/30 09:06:34;;;;;;;2.40;2.20;;;;;;;15.99;64.29;101225.84;1720933;81;28065;-75
2021/05/30 09:09:04;;;;;;;2.67;2.35;;;;;;;16.00;63.74;101219.38;1702995;83;25719;-75
2021/05/30 09:11:52;;;;;;;6.78;2.67;;;;;;;15.98;63.77;101214.20;1679729;82;25611;-74
2021/05/30 09:14:24;;;;;;;5.53;2.10;;;;;;;16.04;64.07;101224.17;1653982;82;25889;-75
2021/05/30 09:17:04;;;;;;;3.33;1.90;;;;;;;16.07;63.78;101224.28;1715648;82;25652;-74
2021/05/30 09:19:45;;;;;;;2.27;1.92;;;;;;;16.05;61.96;101215.04;1720009;82;28011;-74
2021/05/30 09:22:32;;;;;;;2.10;1.90;;;;;;;16.03;61.93;101223.87;1681128;83;26540;-74
2021/05/30 09:25:10;;;;;;;2.35;2.02;;;;;;;16.07;61.37;101222.93;1670063;82;25775;-75
2021/05/30 09:27:45;;;;;;;2.72;2.00;;;;;;;16.12;61.77;101219.91;1719957;81;25724;-74
2021/05/30 09:30:20;;;;;;;2.08;1.75;;;;;;;16.18;61.34;101218.27;1697540;83;25717;-75
2021/05/30 09:33:11;;;;;;;2.05;1.80;;;;;;;16.20;61.60;101216.18;1647540;83;27424;-74
2021/05/30 09:35:43;;;;;;;2.87;1.87;;;;;;;16.21;59.11;101224.07;1671534;81;26407;-75
2021/05/30 09:38:17;;;;;;;3.60;1.77;;;;;;;16.16;59.38;101217.64;1710037;83;25653;-75
2021/05/30 09:40:52;;;;;;;4.20;1.82;;;;;;;16.13;60.07;101222.09;1718752;82;25683;-74
2021/05/30 09:43:40;;;;;;;5.40;1.90;;;;;;;16.14;60.30;101218.37;1687312;82;25956;-74
2021/05/30 09:46:16;;;;;;;2.42;1.55;;;;;;;16.18;60.56;101224.50;1683927;81;26785;-74
2021/05/30 09:48:57;;;;;;;3.08;1.85;;;;;;;16.23;60.89;101221.98;1689775;83;25681;-75
2021/05/30 09:51:37;;;;;;;2.40;2.20;;;;;;;16.34;61.02;101226.48;1698654;82;25696;-75
2021/05/30 09:54:13;;;;;;;4.22;1.70;;;;;;;16.35;58.90;101222.72;1656856;82;25914;-74
2021/05/30 09:56:46;;;;;;;4.65;1.90;;;;;;;16.37;60.00;101223.34;1661941;83;26424;-75
2021/05/30 09:59:16;;;;;;;4.22;1.98;;;;;;;16.40;58.46;101222.94;1705460;83;27461;-74
2021/05/30 10:02:00;;;;;;;2.83;1.82;;;;;;;16.43;59.23;101218.44;1696422;83;25855;-74
2021/05/30 10:04:31;;;;;;;3.20;1.90;;;;;;;16.47;59.21;101217.81;1637722;83;26551;-74
2021/05/30 10:07:00;;;;;;;2.33;2.12;;;;;;;16.55;59.03;101225.73;1623658;83;25333;-75
2021/05/30 10:09:29;;;;;;;7.12;2.08;;;;;;;16.59;59.13;101218.89;1683981;83;26691;-74
2021/05/30 10:11:57;;;;;;;5.45;2.02;;;;;;;16.61;59.40;101230.84;1710292;83;27533;-74
2021/05/30 10:14:25;;;;;;;1.92;1.72;;;;;;;16.55;58.02;101233.84;1678637;83;26513;-75
2021/05/30 10:16:53;;;;;;;3.12;1.87;;;;;;;16.48;58.04;101236.23;1656149;83;25687;-75
2021/05/30 10:19:40;;;;;;;2.87;1.70;;;;;;;16.42;58.76;101238.42;1698714;83;25645;-75
2021/05/30 10:22:09;;;;;;;2.37;1.87;;;;;;;16.36;58.88;101241.42;1673061;83;25622;-75
2021/05/30 10:24:42;;;;;;;2.33;1.87;;;;;;;16.26;58.49;101236.97;1690100;81;27556;-75
2021/05/30 10:27:23;;;;;;;2.55;2.00;;;;;;;16.20;58.47;101241.34;1655095;83;25710;-74
2021/05/30 10:30:13;;;;;;;3.58;1.92;;;;;;;16.16;58.50;101244.67;1721655;81;25617;-74
2021/05/30 10:32:46;;;;;;;2.20;1.98;;;;;;;16.10;57.85;101244.95;1700474;83;26246;-74
2021/05/30 10:35:20;;;;;;;2.98;1.80;;;;;;;16.04;58.18;101241.73;1650481;83;25860;-74
2021/05/30 10:37:53;;;;;;;4.03;1.80;;;;;;;16.03;57.98;101243.30;1658307;83;28153;-75
2021/05/30 10:40:33;;;;;;;2.40;1.62;;;;;;;16.00;58.63;101242.35;1695254;83;25807;-75
2021/05/30 10:43:13;;;;;;;3.02;1.90;;;;;;;16.01;58.20;101252.98;1724510;81;26261;-74
2021/05/30 10:45:51;;;;;;;3.58;2.22;;;;;;;16.01;59.61;101244.88;1678708;84;25775;-75
2021/05/30 10:48:19;;;;;;;1.67;1.57;;;;;;;16.03;59.60;101242.80;1687014;83;25828;-74
2021/05/30 10:53:51;;;;;;;2.72;1.82;;;;;;;16.11;59.26;101239.88;1696342;83;26226;-74
2021/05/30 10:56:32;;;;;;;2.40;1.90;;;;;;;16.15;59.08;101242.48;1691578;83;25817;-75
2021/05/30 10:59:17;;;;;;;3.35;1.60;;;;;;;16.17;58.89;101245.80;1681285;83;25673;-74
2021/05/30 11:01:48;;;;;;;2.65;1.62;;;;;;;16.17;58.23;101242.26;1679032;83;25701;-74
2021/05/30 11:04:30;;;;;;;3.80;1.95;;;;;;;16.17;58.57;101244.45;1709706;82;27592;-74
2021/05/30 11:07:27;;;;;;;2.47;1.87;;;;;;;16.16;57.76;101240.61;1657596;83;26123;-74
2021/05/30 11:10:01;;;;;;;2.95;1.50;;;;;;;16.14;57.92;101230.53;1689443;83;25957;-74
2021/05/30 11:12:49;;;;;;;1.80;1.70;;;;;;;16.13;58.64;101241.02;1708488;83;25820;-74
2021/05/30 11:15:20;;;;;;;3.35;1.60;;;;;;;16.15;58.68;101245.69;1707578;83;26410;-75
2021/05/30 11:17:52;;;;;;;3.15;1.80;;;;;;;16.18;58.39;101242.59;1671147;84;28028;-75
2021/05/30 11:20:24;;;;;;;2.52;1.70;;;;;;;16.23;58.80;101240.07;1661832;84;26438;-74
2021/05/30 11:23:04;;;;;;;3.27;1.92;;;;;;;16.33;59.05;101242.38;1670943;84;26385;-75
2021/05/30 11:25:44;;;;;;;7.22;2.15;;;;;;;16.40;58.67;101240.51;1696540;83;26151;-75
2021/05/30 11:28:24;;;;;;;2.55;1.60;;;;;;;16.49;58.33;101242.77;1683785;83;25618;-74
2021/05/30 11:31:03;;;;;;;;;;;;;;;16.55;58.59;101242.50;1664588;83;28249;-74
2021/05/30 11:33:40;;;;;;;1.70;1.57;;;;;;;16.61;58.21;101247.91;1668259;84;25669;-74
2021/05/30 11:36:08;;;;;;;2.85;1.72;;;;;;;16.70;58.32;101247.97;1690294;83;25706;-74
2021/05/30 11:38:52;;;;;;;1.42;1.32;;;;;;;16.81;58.45;101247.33;1632819;83;26425;-75
2021/05/30 11:41:34;;;;;;;1.62;1.52;;;;;;;16.92;58.91;101237.73;1669780;84;25702;-74
2021/05/30 11:44:07;;;;;;;1.67;1.40;;;;;;;17.04;57.00;101237.40;1653456;83;27479;-74
2021/05/30 11:46:39;;;;;;;3.95;1.60;;;;;;;17.14;55.32;101233.70;1694209;83;26506;-74
2021/05/30 11:49:19;;;;;;;2.47;1.35;;;;;;;17.21;54.71;101235.88;1634305;83;25798;-75